Cascabel, Arizona
Current Conditions -  °F | °C
As of 1:58 PM on Thursday 18 Dec 2014 (Local Time) from KDMA Reporting Station
Broken Clouds Broken Clouds  
Wind Chill: 53°   Ceiling: 6500
Heat Index: 53°   Visibility: 10mi
Dew Point: 44°   Wind: 10mph
Humidity: 71%   Direction: 330°NNW
Pressure: 30.07"   Gusts: NA
Location:  32.1865°N, 110.265°W
Report Text: KDMA 182058Z AUTO 33009KT 10SM SCT042 SCT050 BKN065 12/07 A3007 RMK AO2 SLP168 60000 T01180066 57015 $
Loading
Personal Weather Stations






























Interactive Weather Map New forecast layout! Learn more

10-Day Weather Forecast

Advertisements
Track Severe Weather on mobile